Time;durP1;ratioP1;P1;durP2;ratioP2;P2;SDS_P1;SDS_P2;PMS_P1;PMS_P2;Temp;Humidity;BMP_temperature;BMP_pressure;BME280_temperature;BME280_humidity;BME280_pressure;Samples;Min_cycle;Max_cycle;Signal;HPM_P1;HPM_P2
2023/04/14 00:01:02;;;;;;;4.13;1.55;;;5.40;99.90;;;;;;7400924;19;19923;-79
2023/04/14 00:03:33;;;;;;;5.32;2.30;;;5.60;99.90;;;;;;7401172;19;19965;-79
2023/04/14 00:06:02;;;;;;;5.38;2.10;;;5.50;99.90;;;;;;7400353;19;19926;-79
2023/04/14 00:08:31;;;;;;;5.25;1.63;;;5.60;99.90;;;;;;7402221;19;20339;-79
2023/04/14 00:11:00;;;;;;;5.40;2.17;;;5.80;99.90;;;;;;7402529;19;19921;-79
2023/04/14 00:13:29;;;;;;;7.03;2.00;;;5.50;99.90;;;;;;7398506;19;20015;-79
2023/04/14 00:15:58;;;;;;;5.15;1.92;;;5.60;99.90;;;;;;7401278;19;19930;-79
2023/04/14 00:18:27;;;;;;;4.15;2.03;;;5.50;99.90;;;;;;7402012;19;20412;-79
2023/04/14 00:20:59;;;;;;;4.43;1.95;;;6.30;99.90;;;;;;7397201;19;20538;-77
2023/04/14 00:23:28;;;;;;;10.35;2.60;;;4.90;99.90;;;;;;7394844;19;19926;-79
2023/04/14 00:25:57;;;;;;;8.80;2.63;;;6.30;99.90;;;;;;7401774;19;20264;-78
2023/04/14 00:28:26;;;;;;;8.18;2.15;;;6.00;99.90;;;;;;7402130;19;19926;-78
2023/04/14 00:30:58;;;;;;;6.97;2.05;;;5.50;99.90;;;;;;7400083;19;19935;-78
2023/04/14 00:33:27;;;;;;;7.07;2.10;;;5.40;99.90;;;;;;7399543;19;19911;-78
2023/04/14 00:35:58;;;;;;;3.75;1.98;;;5.50;99.90;;;;;;7401778;19;19911;-78
2023/04/14 00:38:27;;;;;;;7.93;2.38;;;6.10;99.90;;;;;;7402494;19;19942;-78
2023/04/14 00:40:56;;;;;;;10.48;2.55;;;5.60;99.90;;;;;;7400248;19;19923;-78
2023/04/14 00:43:25;;;;;;;7.65;2.45;;;5.60;99.90;;;;;;7404226;19;19926;-78
2023/04/14 00:45:54;;;;;;;6.70;2.20;;;5.50;99.90;;;;;;7401428;19;19928;-78
2023/04/14 00:48:23;;;;;;;4.57;2.38;;;5.50;99.90;;;;;;7404420;19;19922;-78
2023/04/14 00:50:52;;;;;;;8.82;2.47;;;5.20;99.90;;;;;;7400512;19;20340;-78
2023/04/14 00:53:24;;;;;;;4.95;2.45;;;5.50;99.90;;;;;;7401638;19;20356;-78
2023/04/14 00:55:53;;;;;;;9.25;2.25;;;5.40;99.90;;;;;;7397974;19;19933;-79
2023/04/14 00:58:22;;;;;;;5.82;2.33;;;5.30;99.90;;;;;;7400273;19;19929;-78
2023/04/14 01:00:54;;;;;;;6.80;2.17;;;5.20;99.90;;;;;;7399296;19;19918;-78
2023/04/14 01:03:23;;;;;;;5.47;2.22;;;4.60;99.90;;;;;;7401778;19;19937;-78
2023/04/14 01:05:52;;;;;;;6.97;1.98;;;5.40;99.90;;;;;;7401807;19;19922;-78
2023/04/14 01:08:24;;;;;;;3.42;1.90;;;4.60;99.90;;;;;;7401112;19;19911;-78
2023/04/14 01:11:03;;;;;;;4.55;1.80;;;5.10;99.90;;;;;;7398217;19;20344;-78
2023/04/14 01:13:42;;;;;;;4.43;1.92;;;5.30;99.90;;;;;;7399931;19;19922;-78
2023/04/14 01:16:19;;;;;;;5.95;2.45;;;6.50;99.90;;;;;;7400715;19;19925;-78
2023/04/14 01:18:57;;;;;;;5.72;2.95;;;4.10;99.90;;;;;;7399182;19;19974;-78
2023/04/14 01:21:33;;;;;;;6.13;2.08;;;5.10;99.90;;;;;;7400670;19;19922;-78
2023/04/14 01:24:31;;;;;;;5.15;2.05;;;5.00;99.90;;;;;;7398793;19;19943;-78
2023/04/14 01:27:06;;;;;;;7.88;1.92;;;5.20;99.90;;;;;;7399318;19;19918;-79
2023/04/14 01:30:07;;;;;;;9.77;2.45;;;5.20;99.90;;;;;;7398566;19;19990;-79
2023/04/14 01:32:44;;;;;;;6.85;1.83;;;5.10;99.90;;;;;;7396895;19;19921;-79
2023/04/14 01:35:19;;;;;;;6.10;1.90;;;5.20;99.90;;;;;;7399402;19;19923;-78
2023/04/14 01:37:53;;;;;;;4.63;2.42;;;5.70;99.90;;;;;;7399919;19;19943;-78
2023/04/14 01:40:24;;;;;;;5.45;2.22;;;6.10;99.90;;;;;;7400278;19;19914;-78
2023/04/14 01:43:01;;;;;;;6.60;1.67;;;4.40;99.90;;;;;;7400252;19;19929;-78
2023/04/14 01:45:35;;;;;;;4.03;1.60;;;4.60;99.90;;;;;;7400052;19;20344;-79
2023/04/14 01:48:08;;;;;;;5.20;1.80;;;4.40;99.90;;;;;;7400351;19;19925;-78
2023/04/14 01:50:38;;;;;;;7.28;1.70;;;5.20;99.90;;;;;;7399368;19;19910;-78
2023/04/14 01:53:10;;;;;;;4.53;1.60;;;5.70;99.90;;;;;;7399100;19;19925;-78
2023/04/14 01:55:42;;;;;;;5.68;1.67;;;6.00;99.90;;;;;;7394844;19;19926;-78
2023/04/14 01:58:12;;;;;;;4.15;1.73;;;4.80;99.90;;;;;;7402676;19;19923;-78
2023/04/14 02:00:43;;;;;;;5.90;1.90;;;5.60;99.90;;;;;;7405491;19;19938;-78
2023/04/14 02:03:15;;;;;;;4.60;1.40;;;5.70;99.90;;;;;;7399042;19;20352;-78
2023/04/14 02:05:45;;;;;;;4.40;1.77;;;4.90;99.90;;;;;;7403241;19;19922;-78
2023/04/14 02:08:15;;;;;;;5.85;1.73;;;4.50;99.90;;;;;;7399678;19;19941;-77
2023/04/14 02:10:47;;;;;;;3.47;1.80;;;5.10;99.90;;;;;;7406355;19;20454;-78
2023/04/14 02:13:19;;;;;;;4.32;2.20;;;4.90;99.90;;;;;;7404914;19;20272;-78
2023/04/14 02:15:50;;;;;;;5.35;1.83;;;5.90;99.90;;;;;;7400778;19;19922;-78
2023/04/14 02:18:24;;;;;;;5.00;1.88;;;4.40;99.90;;;;;;7406016;19;20278;-78
2023/04/14 02:20:57;;;;;;;5.60;1.90;;;5.10;99.90;;;;;;7405167;19;19921;-78
2023/04/14 02:23:27;;;;;;;7.47;3.05;;;5.50;99.90;;;;;;7403362;19;19934;-78
2023/04/14 02:26:02;;;;;;;6.35;2.05;;;4.90;99.90;;;;;;7401505;19;19941;-78
2023/04/14 02:28:34;;;;;;;6.18;1.90;;;4.00;99.90;;;;;;7403655;19;19933;-78
2023/04/14 02:31:04;;;;;;;;;;;5.10;99.90;;;;;;7406814;19;19929;-78
2023/04/14 02:33:39;;;;;;;8.48;1.60;;;4.80;99.90;;;;;;7405546;19;19914;-78
2023/04/14 02:36:15;;;;;;;3.22;1.70;;;5.60;99.90;;;;;;7399716;19;19929;-78
2023/04/14 02:38:59;;;;;;;6.05;1.92;;;5.20;99.90;;;;;;7402044;19;19942;-78
2023/04/14 02:41:31;;;;;;;4.85;1.98;;;5.30;99.90;;;;;;7407849;19;19922;-78
2023/04/14 02:44:06;;;;;;;3.90;2.03;;;5.10;99.90;;;;;;7403718;19;19914;-78
2023/04/14 02:46:39;;;;;;;6.07;1.67;;;4.90;99.90;;;;;;7402167;19;20285;-78
2023/04/14 02:49:15;;;;;;;6.07;1.70;;;4.50;99.90;;;;;;7404214;19;20267;-78
2023/04/14 02:51:46;;;;;;;3.58;1.92;;;4.90;99.90;;;;;;7404497;19;19954;-78
2023/04/14 02:54:16;;;;;;;7.70;2.42;;;5.00;99.90;;;;;;7405403;19;19979;-78
2023/04/14 02:56:46;;;;;;;3.00;1.90;;;5.00;99.90;;;;;;7398811;19;19918;-78
2023/04/14 02:59:15;;;;;;;5.55;1.90;;;5.10;99.90;;;;;;7403647;19;20356;-77
2023/04/14 03:01:45;;;;;;;4.22;1.80;;;5.80;99.90;;;;;;7404225;19;20629;-78
2023/04/14 03:04:18;;;;;;;4.28;1.95;;;5.10;99.90;;;;;;7404988;19;19928;-78
2023/04/14 03:06:47;;;;;;;4.82;1.67;;;5.30;99.90;;;;;;7401654;19;19937;-77
2023/04/14 03:09:17;;;;;;;7.82;2.00;;;5.40;99.90;;;;;;7402763;19;19974;-78
2023/04/14 03:11:47;;;;;;;3.47;1.80;;;6.20;99.90;;;;;;7403007;19;19915;-78
2023/04/14 03:14:17;;;;;;;5.10;1.58;;;6.00;99.90;;;;;;7403584;19;19923;-78
2023/04/14 03:16:47;;;;;;;5.18;1.90;;;4.40;99.90;;;;;;7401211;19;19942;-78
2023/04/14 03:19:22;;;;;;;6.35;1.90;;;6.20;99.90;;;;;;7402681;19;19929;-78
2023/04/14 03:21:53;;;;;;;7.90;1.90;;;5.30;99.90;;;;;;7404050;19;19934;-78
2023/04/14 03:24:29;;;;;;;5.70;2.42;;;6.00;99.90;;;;;;7402203;19;19922;-78
2023/04/14 03:27:02;;;;;;;7.75;2.13;;;5.30;99.90;;;;;;7402210;19;19929;-79
2023/04/14 03:29:37;;;;;;;4.57;1.67;;;5.50;99.90;;;;;;7402131;19;20274;-78
2023/04/14 03:32:08;;;;;;;3.75;1.48;;;6.30;99.90;;;;;;7401559;19;19922;-78
2023/04/14 03:34:45;;;;;;;4.63;1.77;;;5.50;99.90;;;;;;7403541;19;19930;-78
2023/04/14 03:37:17;;;;;;;7.75;1.80;;;6.30;99.90;;;;;;7403472;19;20353;-78
2023/04/14 03:39:49;;;;;;;6.03;2.30;;;5.00;99.90;;;;;;7406285;19;20384;-79
2023/04/14 03:42:23;;;;;;;3.97;1.95;;;5.40;99.90;;;;;;7404461;19;19950;-78
2023/04/14 03:44:54;;;;;;;4.45;1.80;;;5.40;99.90;;;;;;7404091;19;19926;-78
2023/04/14 03:47:25;;;;;;;5.70;1.90;;;5.40;99.90;;;;;;7404151;19;19925;-77
2023/04/14 03:50:00;;;;;;;3.28;1.55;;;5.60;99.90;;;;;;7403581;19;19974;-77
2023/04/14 03:52:32;;;;;;;4.22;1.67;;;5.50;99.90;;;;;;7403061;19;20249;-78
2023/04/14 03:55:05;;;;;;;6.38;1.80;;;5.00;99.90;;;;;;7403735;19;19934;-78
2023/04/14 03:57:35;;;;;;;2.97;1.67;;;5.30;99.90;;;;;;7403130;19;19923;-78
2023/04/14 04:00:08;;;;;;;2.75;1.67;;;5.30;99.90;;;;;;7408298;19;20340;-78
2023/04/14 04:02:38;;;;;;;4.80;2.10;;;5.30;99.90;;;;;;7406909;19;19922;-77
2023/04/14 04:05:11;;;;;;;4.70;1.70;;;5.40;99.90;;;;;;7406697;19;19935;-78
2023/04/14 04:07:43;;;;;;;3.45;2.03;;;5.20;99.90;;;;;;7402514;19;19933;-77
2023/04/14 04:10:15;;;;;;;;;;;5.20;99.90;;;;;;7404469;19;19918;-78
2023/04/14 04:12:46;;;;;;;4.32;2.10;;;5.20;99.90;;;;;;7400870;19;19922;-77
2023/04/14 04:15:15;;;;;;;6.38;1.80;;;5.30;99.90;;;;;;7403593;19;19929;-78
2023/04/14 04:17:45;;;;;;;7.80;2.30;;;5.10;99.90;;;;;;7397742;19;19914;-78
2023/04/14 04:20:17;;;;;;;3.15;1.45;;;5.20;99.90;;;;;;7400309;19;19950;-78
2023/04/14 04:22:48;;;;;;;6.35;1.70;;;5.20;99.90;;;;;;7401619;19;19923;-78
2023/04/14 04:25:18;;;;;;;3.53;1.88;;;5.70;99.90;;;;;;7401400;19;19918;-78
2023/04/14 04:27:48;;;;;;;6.78;1.90;;;5.10;99.90;;;;;;7399809;19;19929;-77
2023/04/14 04:30:19;;;;;;;3.30;1.85;;;5.10;99.90;;;;;;7400689;19;20400;-77
2023/04/14 04:32:48;;;;;;;4.55;1.95;;;5.40;99.90;;;;;;7395751;19;20348;-78
2023/04/14 04:35:22;;;;;;;4.78;1.90;;;5.10;99.90;;;;;;7401132;19;19923;-77
2023/04/14 04:37:52;;;;;;;5.50;1.90;;;5.20;99.90;;;;;;7400451;19;20351;-78
2023/04/14 04:40:21;;;;;;;4.88;2.05;;;5.30;99.90;;;;;;7400589;19;19923;-77
2023/04/14 04:42:50;;;;;;;7.80;2.00;;;5.00;99.90;;;;;;7399231;19;19933;-78
2023/04/14 04:45:37;;;;;;;4.45;2.00;;;5.00;99.90;;;;;;7402075;19;19918;-78
2023/04/14 04:48:07;;;;;;;4.03;1.88;;;5.00;99.90;;;;;;7399863;19;20020;-77
2023/04/14 04:50:38;;;;;;;2.00;1.70;;;4.90;99.90;;;;;;7400475;19;19918;-77
2023/04/14 04:53:07;;;;;;;4.10;2.13;;;5.00;99.90;;;;;;7401109;19;19939;-77
2023/04/14 04:55:36;;;;;;;4.75;1.88;;;4.90;99.90;;;;;;7400789;19;19918;-78
2023/04/14 04:58:05;;;;;;;2.78;1.60;;;5.70;99.90;;;;;;7399349;19;19937;-78
2023/04/14 05:00:34;;;;;;;6.70;2.00;;;5.00;99.90;;;;;;7396209;19;19935;-78
2023/04/14 05:03:03;;;;;;;7.28;2.20;;;5.70;99.90;;;;;;7401745;19;19926;-79
2023/04/14 05:05:32;;;;;;;6.53;1.80;;;5.00;99.90;;;;;;7399820;19;20232;-78
2023/04/14 05:08:03;;;;;;;5.93;2.00;;;5.10;99.90;;;;;;7401144;19;20255;-77
2023/04/14 05:10:32;;;;;;;6.00;2.40;;;5.10;99.90;;;;;;7398748;19;19922;-79
2023/04/14 05:13:01;;;;;;;4.75;2.20;;;5.10;99.90;;;;;;7400203;19;20013;-77
2023/04/14 05:15:30;;;;;;;5.63;2.03;;;5.10;99.90;;;;;;7399450;19;19923;-77
2023/04/14 05:18:00;;;;;;;4.05;1.95;;;5.20;99.90;;;;;;7400746;19;20264;-77
2023/04/14 05:20:29;;;;;;;3.15;1.70;;;6.10;99.90;;;;;;7398332;19;19918;-78
2023/04/14 05:22:58;;;;;;;3.30;1.98;;;5.70;99.90;;;;;;7399867;19;19936;-78
2023/04/14 05:25:30;;;;;;;3.47;1.70;;;5.50;99.90;;;;;;7397497;19;19926;-78
2023/04/14 05:27:59;;;;;;;5.43;2.28;;;5.50;99.90;;;;;;7399520;19;19919;-78
2023/04/14 05:30:28;;;;;;;5.68;2.10;;;5.60;99.90;;;;;;7394405;19;19927;-79
2023/04/14 05:32:57;;;;;;;9.98;2.35;;;5.60;99.90;;;;;;7409505;19;19978;-78
2023/04/14 05:35:26;;;;;;;6.15;1.60;;;6.10;99.90;;;;;;7413284;19;19930;-78
2023/04/14 05:37:55;;;;;;;4.70;1.80;;;6.40;99.90;;;;;;7413848;19;20303;-78
2023/04/14 05:40:24;;;;;;;5.53;2.15;;;5.70;99.90;;;;;;7416756;19;19933;-77
2023/04/14 05:42:56;;;;;;;5.18;1.90;;;5.70;99.90;;;;;;7412999;19;20388;-78
2023/04/14 05:45:25;;;;;;;5.32;2.05;;;5.80;99.90;;;;;;7404708;19;20003;-79
2023/04/14 05:47:54;;;;;;;6.88;2.60;;;5.70;99.90;;;;;;7405748;19;19926;-79
2023/04/14 05:50:23;;;;;;;5.35;1.88;;;5.80;99.90;;;;;;7405567;19;19922;-78
2023/04/14 05:52:52;;;;;;;8.25;2.10;;;5.90;99.90;;;;;;7406334;19;20368;-79
2023/04/14 05:55:21;;;;;;;4.53;2.05;;;5.90;99.90;;;;;;7406736;19;19922;-78
2023/04/14 05:57:51;;;;;;;6.05;2.22;;;6.10;99.90;;;;;;7402035;19;20369;-80
2023/04/14 06:00:24;;;;;;;4.45;2.00;;;6.00;99.90;;;;;;7411287;19;20388;-78
2023/04/14 06:02:53;;;;;;;5.68;1.75;;;6.00;99.90;;;;;;7409996;19;19922;-78
2023/04/14 06:05:23;;;;;;;6.03;2.13;;;6.60;99.90;;;;;;7412787;19;19926;-77
2023/04/14 06:07:51;;;;;;;4.03;1.95;;;6.60;99.90;;;;;;7408976;19;19932;-77
2023/04/14 06:10:20;;;;;;;5.35;2.00;;;6.10;99.90;;;;;;7406586;19;19923;-77
2023/04/14 06:12:49;;;;;;;4.43;1.83;;;6.10;99.90;;;;;;7409883;19;19931;-78
2023/04/14 06:15:18;;;;;;;5.80;1.98;;;7.10;99.90;;;;;;7404084;19;19930;-79
2023/04/14 06:17:50;;;;;;;5.72;1.67;;;6.00;99.90;;;;;;7403843;19;19923;-79
2023/04/14 06:20:20;;;;;;;5.53;2.08;;;6.10;99.90;;;;;;7402278;19;20288;-77
2023/04/14 06:22:49;;;;;;;6.35;1.90;;;6.80;99.90;;;;;;7404300;19;19922;-77
2023/04/14 06:25:18;;;;;;;5.65;2.35;;;6.80;99.90;;;;;;7404715;19;19931;-76
2023/04/14 06:27:48;;;;;;;3.40;1.98;;;6.10;99.90;;;;;;7409606;19;19922;-77
2023/04/14 06:30:17;;;;;;;5.50;1.77;;;6.20;99.90;;;;;;7400023;19;19952;-77
2023/04/14 06:32:47;;;;;;;3.50;1.77;;;6.20;99.90;;;;;;7404796;19;19948;-77
2023/04/14 06:35:18;;;;;;;5.38;2.30;;;6.90;99.90;;;;;;7399606;19;19926;-76
2023/04/14 06:37:47;;;;;;;3.38;1.77;;;6.50;99.90;;;;;;7409295;19;19933;-77
2023/04/14 06:40:16;;;;;;;6.43;2.35;;;6.40;99.90;;;;;;7412659;19;19931;-78
2023/04/14 06:42:45;;;;;;;4.70;1.80;;;6.30;99.90;;;;;;7402140;19;19922;-77
2023/04/14 06:45:14;;;;;;;5.38;2.28;;;6.90;99.90;;;;;;7403972;19;19978;-77
2023/04/14 06:47:43;;;;;;;5.25;2.22;;;6.30;99.90;;;;;;7401589;19;19929;-75
2023/04/14 06:50:13;;;;;;;3.97;1.80;;;6.30;99.90;;;;;;7402008;19;20377;-76
2023/04/14 06:52:45;;;;;;;8.93;2.00;;;6.50;99.90;;;;;;7400348;19;20333;-77
2023/04/14 06:55:14;;;;;;;4.38;1.73;;;6.50;99.90;;;;;;7396872;19;19942;-77
2023/04/14 06:57:43;;;;;;;10.70;2.13;;;6.50;99.90;;;;;;7394991;19;20317;-76
2023/04/14 07:00:13;;;;;;;5.43;1.98;;;6.60;99.90;;;;;;7398331;19;19915;-77
2023/04/14 07:02:42;;;;;;;4.93;1.60;;;6.50;99.90;;;;;;7397515;19;19940;-78
2023/04/14 07:05:12;;;;;;;7.40;2.00;;;6.70;99.90;;;;;;7398145;19;19925;-76
2023/04/14 07:07:43;;;;;;;10.55;2.25;;;6.60;99.90;;;;;;7399005;19;20419;-77
2023/04/14 07:10:12;;;;;;;5.28;2.25;;;6.70;99.90;;;;;;7402948;19;19918;-77
2023/04/14 07:12:41;;;;;;;3.88;2.30;;;6.70;99.90;;;;;;7395980;19;19915;-77
2023/04/14 07:15:13;;;;;;;5.18;1.90;;;6.60;99.90;;;;;;7397298;19;19923;-77
2023/04/14 07:17:41;;;;;;;6.22;2.03;;;6.60;99.90;;;;;;7400543;19;19926;-77
2023/04/14 07:20:12;;;;;;;7.68;2.20;;;6.80;99.90;;;;;;7404484;19;19930;-77
2023/04/14 07:22:44;;;;;;;4.95;1.90;;;6.80;99.90;;;;;;7399958;19;19923;-77
2023/04/14 07:25:13;;;;;;;5.18;2.03;;;8.60;99.90;;;;;;7394488;19;19926;-77
2023/04/14 07:27:42;;;;;;;2.38;1.73;;;6.80;99.90;;;;;;7395598;19;19919;-77
2023/04/14 07:30:11;;;;;;;5.47;1.98;;;6.90;99.90;;;;;;7397413;19;19935;-77
2023/04/14 07:32:41;;;;;;;4.43;2.05;;;6.90;99.90;;;;;;7398542;19;19918;-77
2023/04/14 07:35:10;;;;;;;4.38;2.30;;;6.90;99.90;;;;;;7405063;19;19923;-78
2023/04/14 07:37:39;;;;;;;4.32;2.15;;;6.80;99.90;;;;;;7401728;19;19915;-77
2023/04/14 07:40:12;;;;;;;6.38;2.20;;;7.00;99.90;;;;;;7405016;19;20245;-77
2023/04/14 07:42:41;;;;;;;5.60;2.22;;;7.00;99.90;;;;;;7403307;19;19923;-77
2023/04/14 07:45:11;;;;;;;2.92;1.75;;;7.10;99.90;;;;;;7405585;19;19926;-77
2023/04/14 07:47:40;;;;;;;3.80;2.33;;;7.20;99.90;;;;;;7402494;19;19911;-77
2023/04/14 07:50:10;;;;;;;4.43;2.60;;;7.20;99.90;;;;;;7393316;19;19942;-77
2023/04/14 07:52:39;;;;;;;4.53;2.17;;;7.50;99.90;;;;;;7395371;19;19915;-77
2023/04/14 07:55:10;;;;;;;5.95;2.92;;;7.30;99.90;;;;;;7391478;19;19918;-77
2023/04/14 07:57:39;;;;;;;4.50;2.30;;;7.30;99.90;;;;;;7399526;19;20255;-77
2023/04/14 08:00:10;;;;;;;7.50;2.63;;;7.40;99.90;;;;;;7394097;19;19926;-77
2023/04/14 08:02:39;;;;;;;5.60;2.28;;;7.40;99.90;;;;;;7390263;19;19930;-78
2023/04/14 08:05:08;;;;;;;3.92;1.73;;;8.50;99.90;;;;;;7394880;19;20246;-77
2023/04/14 08:07:37;;;;;;;5.00;2.17;;;7.60;99.90;;;;;;7395171;19;19918;-77
2023/04/14 08:10:07;;;;;;;11.50;2.35;;;6.30;99.90;;;;;;7398826;19;19922;-77
2023/04/14 08:12:38;;;;;;;6.75;1.80;;;7.50;99.90;;;;;;7392640;19;19937;-77
2023/04/14 08:15:08;;;;;;;8.50;2.15;;;7.70;99.90;;;;;;7397535;19;19926;-77
2023/04/14 08:17:37;;;;;;;5.57;2.08;;;7.60;99.90;;;;;;7389519;19;19941;-77
2023/04/14 08:20:08;;;;;;;3.35;1.95;;;7.70;99.90;;;;;;7390717;19;20018;-77
2023/04/14 08:22:37;;;;;;;6.93;2.00;;;7.80;99.90;;;;;;7391768;19;19918;-77
2023/04/14 08:25:10;;;;;;;4.22;1.85;;;7.90;99.90;;;;;;7390309;19;19926;-78
2023/04/14 08:27:42;;;;;;;6.60;2.17;;;7.80;99.90;;;;;;7395594;19;20404;-78
2023/04/14 08:30:12;;;;;;;5.50;2.15;;;9.20;99.90;;;;;;7398140;19;19978;-77
2023/04/14 08:32:41;;;;;;;5.43;2.30;;;8.20;99.90;;;;;;7401772;19;20255;-77
2023/04/14 08:35:11;;;;;;;5.63;2.47;;;8.10;99.90;;;;;;7400410;19;19919;-77
2023/04/14 08:37:40;;;;;;;4.13;1.67;;;8.20;99.90;;;;;;7400232;19;20335;-77
2023/04/14 08:40:12;;;;;;;7.60;2.15;;;8.40;99.90;;;;;;7401781;19;20344;-77
2023/04/14 08:42:44;;;;;;;8.23;1.88;;;8.10;99.90;;;;;;7401878;19;19929;-77
2023/04/14 08:45:14;;;;;;;8.98;2.28;;;8.30;99.90;;;;;;7398037;19;19942;-77
2023/04/14 08:47:47;;;;;;;3.75;0.88;;;8.40;99.90;;;;;;7401206;19;19941;-77
2023/04/14 08:50:20;;;;;;;4.68;1.15;;;8.50;99.90;;;;;;7400177;19;19922;-78
2023/04/14 08:52:50;;;;;;;3.95;0.80;;;9.00;99.90;;;;;;7397600;19;19930;-77
2023/04/14 08:55:20;;;;;;;4.07;1.10;;;8.70;99.90;;;;;;7399195;19;19918;-77
2023/04/14 08:57:52;;;;;;;4.78;1.30;;;8.80;99.90;;;;;;7396698;19;19925;-77
2023/04/14 09:00:22;;;;;;;4.15;1.05;;;8.80;99.90;;;;;;7397927;19;19922;-77
2023/04/14 09:02:51;;;;;;;4.95;1.27;;;8.90;99.90;;;;;;7398075;19;19950;-77
2023/04/14 09:05:20;;;;;;;4.53;1.40;;;9.10;99.90;;;;;;7399249;19;19986;-77
2023/04/14 09:07:50;;;;;;;3.55;0.90;;;9.20;99.90;;;;;;7398429;19;19933;-78
2023/04/14 09:10:19;;;;;;;5.45;1.20;;;9.30;99.90;;;;;;7395073;19;19922;-78
2023/04/14 09:12:52;;;;;;;3.88;1.55;;;9.40;99.90;;;;;;7401680;19;19919;-77
2023/04/14 09:15:23;;;;;;;4.72;1.25;;;9.40;99.90;;;;;;7401206;19;19926;-77
2023/04/14 09:17:52;;;;;;;5.43;1.17;;;9.60;99.90;;;;;;7399083;19;19990;-77
2023/04/14 09:20:21;;;;;;;4.35;1.30;;;9.70;99.90;;;;;;7400275;19;19926;-77
2023/04/14 09:22:50;;;;;;;5.13;1.40;;;9.70;99.90;;;;;;7399162;19;19939;-77
2023/04/14 09:25:21;;;;;;;4.07;1.58;;;10.00;99.90;;;;;;7400165;19;19918;-78
2023/04/14 09:27:53;;;;;;;2.92;1.40;;;10.00;99.90;;;;;;7401494;19;20268;-78
2023/04/14 09:30:22;;;;;;;4.15;2.22;;;10.10;99.90;;;;;;7400530;19;19982;-77
2023/04/14 09:32:55;;;;;;;3.65;1.48;;;10.10;99.90;;;;;;7401164;19;19955;-78
2023/04/14 09:35:24;;;;;;;3.38;1.65;;;10.30;99.90;;;;;;7400486;19;20046;-78
2023/04/14 09:37:53;;;;;;;3.00;1.45;;;10.30;99.90;;;;;;7400062;19;20318;-77
2023/04/14 09:40:32;;;;;;;5.03;1.55;;;10.50;99.90;;;;;;7399226;19;19926;-77
2023/04/14 09:43:03;;;;;;;4.15;1.70;;;10.60;99.90;;;;;;7398413;19;20245;-77
2023/04/14 09:45:53;;;;;;;6.28;2.20;;;10.70;99.90;;;;;;7400334;19;19919;-78
2023/04/14 09:48:23;;;;;;;7.25;2.28;;;10.80;99.90;;;;;;7399127;19;19982;-78
2023/04/14 09:50:59;;;;;;;5.53;2.30;;;10.80;99.90;;;;;;7398350;19;19986;-78
2023/04/14 09:53:29;;;;;;;7.13;2.22;;;11.00;99.90;;;;;;7398940;19;19946;-78
2023/04/14 09:56:01;;;;;;;5.43;2.63;;;11.00;99.90;;;;;;7398710;19;19922;-78
2023/04/14 09:58:35;;;;;;;5.38;2.92;;;11.10;99.90;;;;;;7396710;19;19929;-76
2023/04/14 10:01:06;;;;;;;6.50;2.97;;;10.80;99.90;;;;;;7399501;19;19926;-76
2023/04/14 10:03:37;;;;;;;9.15;2.95;;;10.90;99.90;;;;;;7399540;19;20294;-77
2023/04/14 10:06:09;;;;;;;8.73;2.90;;;10.80;99.90;;;;;;7399500;19;19933;-78
2023/04/14 10:08:40;;;;;;;8.00;3.47;;;10.70;99.90;;;;;;7400103;19;19939;-76
2023/04/14 10:11:22;;;;;;;9.73;3.45;;;10.70;99.90;;;;;;7396680;19;19918;-76
2023/04/14 10:13:57;;;;;;;8.65;3.90;;;10.60;99.90;;;;;;7399143;19;19942;-77
2023/04/14 10:16:26;;;;;;;6.38;3.05;;;10.70;99.90;;;;;;7398994;19;20364;-77
2023/04/14 10:18:57;;;;;;;7.15;3.13;;;10.60;99.90;;;;;;7398506;19;19926;-77
2023/04/14 10:21:26;;;;;;;9.02;3.28;;;10.80;99.90;;;;;;7404942;19;19933;-78
2023/04/14 10:23:57;;;;;;;6.22;2.70;;;10.90;99.90;;;;;;7405012;19;19949;-77
2023/04/14 10:26:28;;;;;;;8.45;3.90;;;11.00;99.90;;;;;;7392854;19;19919;-78
2023/04/14 10:29:01;;;;;;;9.43;2.70;;;11.20;99.90;;;;;;7392885;19;19932;-78
2023/04/14 10:31:33;;;;;;;10.32;2.78;;;11.30;99.90;;;;;;7396644;19;20367;-76
2023/04/14 10:34:09;;;;;;;8.65;2.60;;;11.40;99.90;;;;;;7384499;19;19990;-76
2023/04/14 10:36:38;;;;;;;9.30;3.40;;;11.70;99.90;;;;;;7388370;19;19940;-78
2023/04/14 10:39:08;;;;;;;9.57;2.80;;;11.80;99.90;;;;;;7394492;19;19922;-77
2023/04/14 10:41:48;;;;;;;8.50;2.83;;;12.00;99.90;;;;;;7392604;19;19926;-77
2023/04/14 10:44:33;;;;;;;6.55;3.17;;;12.10;99.90;;;;;;7396709;19;19948;-75
2023/04/14 10:47:03;;;;;;;4.15;2.42;;;12.20;99.90;;;;;;7397485;19;19928;-78
2023/04/14 10:49:34;;;;;;;9.50;2.33;;;12.30;99.90;;;;;;7389949;19;19923;-77
2023/04/14 10:52:05;;;;;;;6.20;2.65;;;12.40;99.90;;;;;;7396224;19;19929;-79
2023/04/14 10:54:54;;;;;;;7.72;2.92;;;12.50;99.90;;;;;;7396903;19;19918;-80
2023/04/14 10:57:24;;;;;;;7.10;2.70;;;12.50;99.90;;;;;;7396118;19;19933;-77
2023/04/14 11:00:00;;;;;;;9.45;3.17;;;12.50;99.90;;;;;;7396815;19;19930;-77
2023/04/14 11:02:30;;;;;;;7.18;2.70;;;12.50;99.90;;;;;;7397831;19;19930;-74
2023/04/14 11:05:07;;;;;;;6.53;2.40;;;12.70;99.90;;;;;;7395989;19;20238;-73
2023/04/14 11:07:45;;;;;;;5.93;2.65;;;12.80;99.90;;;;;;7395518;19;19933;-74
2023/04/14 11:10:30;;;;;;;6.13;2.60;;;12.60;99.90;;;;;;7396487;19;20348;-75
2023/04/14 11:13:03;;;;;;;7.28;2.30;;;12.50;99.90;;;;;;7397337;19;19991;-75
2023/04/14 11:15:51;;;;;;;5.00;2.20;;;12.60;99.90;;;;;;7395880;19;19925;-74
2023/04/14 11:18:22;;;;;;;4.38;2.15;;;12.60;99.90;;;;;;7393720;19;19923;-74
2023/04/14 11:20:54;;;;;;;8.15;2.45;;;12.70;99.90;;;;;;7395518;19;20598;-74
2023/04/14 11:23:28;;;;;;;;;;;12.70;99.90;;;;;;7399061;19;19950;-74
2023/04/14 11:25:57;;;;;;;5.95;2.38;;;12.70;99.90;;;;;;7396428;19;19995;-74
2023/04/14 11:28:31;;;;;;;6.50;2.22;;;12.70;99.90;;;;;;7395986;19;19925;-73
2023/04/14 11:31:04;;;;;;;6.88;2.33;;;12.60;99.90;;;;;;7393850;19;19932;-73
2023/04/14 11:33:36;;;;;;;7.53;2.10;;;12.90;99.90;;;;;;7396198;19;19933;-73
2023/04/14 11:36:06;;;;;;;4.53;1.88;;;13.10;99.90;;;;;;7395963;19;19919;-73
2023/04/14 11:38:39;;;;;;;5.03;2.03;;;13.00;99.90;;;;;;7392330;19;19953;-73
2023/04/14 11:41:08;;;;;;;8.32;1.83;;;13.00;99.90;;;;;;7396067;19;19927;-73
2023/04/14 11:43:45;;;;;;;7.43;1.80;;;12.90;99.90;;;;;;7393281;19;20703;-73
2023/04/14 11:46:17;;;;;;;7.82;2.45;;;13.10;99.90;;;;;;7394333;19;19915;-73
2023/04/14 11:48:46;;;;;;;5.45;1.95;;;13.30;99.90;;;;;;7396807;19;19931;-73
2023/04/14 11:51:15;;;;;;;4.47;2.03;;;13.00;99.90;;;;;;7394637;19;19931;-73
2023/04/14 11:53:44;;;;;;;10.43;2.70;;;13.00;99.90;;;;;;7392522;19;19933;-73
2023/04/14 11:56:14;;;;;;;7.40;2.85;;;12.90;99.90;;;;;;7393684;19;19929;-73
2023/04/14 11:58:43;;;;;;;10.35;3.13;;;12.90;99.90;;;;;;7395814;19;20149;-77
2023/04/14 12:01:13;;;;;;;13.10;4.78;;;12.90;99.90;;;;;;7396420;19;19922;-80
2023/04/14 12:03:45;;;;;;;7.53;3.05;;;13.10;99.90;;;;;;7397005;19;19926;-77
2023/04/14 12:06:14;;;;;;;6.50;2.60;;;13.10;99.90;;;;;;7395906;19;19930;-77
2023/04/14 12:08:49;;;;;;;7.60;3.15;;;13.10;99.90;;;;;;7389616;19;19918;-78
2023/04/14 12:11:18;;;;;;;8.35;2.92;;;12.90;99.90;;;;;;7388960;19;19922;-77
2023/04/14 12:13:48;;;;;;;8.45;2.55;;;12.90;99.90;;;;;;7385098;19;19926;-76
2023/04/14 12:16:18;;;;;;;10.45;2.60;;;13.00;99.90;;;;;;7385183;19;19955;-77
2023/04/14 12:18:50;;;;;;;8.77;2.88;;;13.10;99.90;;;;;;7384496;19;20426;-77
2023/04/14 12:21:20;;;;;;;6.40;2.85;;;13.40;99.90;;;;;;7385089;19;19998;-77
2023/04/14 12:23:52;;;;;;;8.93;3.80;;;13.80;99.90;;;;;;7385411;19;19937;-77
2023/04/14 12:26:22;;;;;;;7.07;2.70;;;14.10;99.90;;;;;;7383341;19;19954;-77
2023/04/14 12:28:58;;;;;;;7.13;2.30;;;14.10;99.90;;;;;;7385082;19;20354;-77
2023/04/14 12:31:31;;;;;;;7.25;2.03;;;14.30;99.90;;;;;;7386571;19;19919;-78
2023/04/14 12:34:06;;;;;;;7.78;2.25;;;14.50;99.90;;;;;;7385542;19;19933;-79
2023/04/14 12:36:35;;;;;;;5.43;1.70;;;14.30;99.90;;;;;;7386118;19;19921;-76
2023/04/14 12:39:07;;;;;;;7.38;3.35;;;14.40;99.90;;;;;;7384433;19;19939;-76
2023/04/14 12:41:40;;;;;;;6.03;2.90;;;14.70;99.90;;;;;;7383752;19;20635;-77
2023/04/14 12:44:18;;;;;;;10.18;3.45;;;14.90;99.90;;;;;;7388396;19;20290;-79
2023/04/14 12:46:49;;;;;;;8.77;4.22;;;15.10;99.90;;;;;;7394594;19;19950;-78
2023/04/14 12:49:39;;;;;;;10.55;3.83;;;14.80;99.90;;;;;;7373861;19;19918;-78
2023/04/14 12:52:08;;;;;;;6.18;3.20;;;15.00;99.90;;;;;;7385442;19;19928;-78
2023/04/14 12:54:51;;;;;;;9.05;3.92;;;15.00;99.90;;;;;;7391141;19;20344;-78
2023/04/14 12:57:22;;;;;;;8.85;3.20;;;15.20;99.90;;;;;;7391315;19;20261;-78
2023/04/14 12:59:50;;;;;;;7.32;2.90;;;14.90;99.90;;;;;;7389611;19;20611;-78
2023/04/14 13:02:20;;;;;;;6.88;2.80;;;14.90;99.90;;;;;;7391890;19;19918;-78
2023/04/14 13:04:51;;;;;;;5.05;2.97;;;14.90;99.90;;;;;;7398478;19;19954;-73
2023/04/14 13:07:20;;;;;;;8.30;4.05;;;14.80;99.90;;;;;;7397171;19;19979;-72
2023/04/14 13:09:49;;;;;;;7.28;3.40;;;14.70;99.90;;;;;;7398123;19;20019;-73
2023/04/14 13:12:18;;;;;;;11.25;4.00;;;14.90;99.90;;;;;;7400064;19;20200;-73
2023/04/14 13:14:47;;;;;;;7.55;3.10;;;14.80;99.90;;;;;;7397645;19;19933;-73
2023/04/14 13:17:16;;;;;;;8.43;2.90;;;14.70;99.90;;;;;;7399659;19;19993;-72